Data for 05/02/2010

Time Sea-Level Adjusted Pressure Absolute Pressure Temperature Relative Humidity Dew Point   
(mb) (inHg) (mb) (inHg) (C) (F) (%) (C) (F)
00:05 1008 29.77 838 24.75 2.1 35.8 62 -4.4 24.2
00:10 1008 29.77 838 24.75 2.2 35.9 62 -4.3 24.3
00:15 1008 29.77 838 24.75 2.2 36 62 -4.3 24.2
00:20 1008 29.77 838 24.75 2.2 35.9 62 -4.3 24.2
00:25 1008 29.77 838 24.75 2.2 36 62 -4.3 24.3
00:30 1009 29.8 838 24.75 2.2 35.9 63 -4.2 24.5
00:35 1009 29.8 838 24.75 2.1 35.9 63 -4.2 24.4
00:40 1009 29.8 838 24.75 2.1 35.9 63 -4.2 24.4
00:45 1009 29.8 838 24.75 2.2 35.9 63 -4.1 24.6
00:50 1009 29.8 838 24.75 2.1 35.8 64 -4 24.8
00:55 1009 29.8 838 24.75 2.1 35.9 65 -3.8 25.1
01:00 1009 29.8 838 24.75 2.1 35.9 67 -3.3 26
01:05 1009 29.8 838 24.75 1.9 35.5 69 -3.2 26.2
01:10 1009 29.8 838 24.75 1.8 35.2 71 -2.9 26.7
01:15 1009 29.8 838 24.75 1.6 34.9 72 -2.9 26.7
01:20 1009 29.8 838 24.75 1.5 34.6 73 -2.9 26.7
01:25 1009 29.8 838 24.75 1.3 34.3 75 -2.6 27.2
01:30 1009 29.8 838 24.75 1.2 34.1 77 -2.5 27.5
01:35 1009 29.8 838 24.75 1.1 34 78 -2.3 27.8
01:40 1009 29.8 838 24.75 1 33.8 81 -1.9 28.6
01:45 1009 29.8 838 24.75 0.8 33.4 81 -2.2 28.1
01:50 1009 29.8 838 24.75 0.8 33.4 81 -2.1 28.2
01:55 1009 29.8 838 24.75 0.8 33.5 81 -2.1 28.3
02:00 1009 29.8 839 24.78 0.8 33.5 81 -2 28.3
02:05 1009 29.8 839 24.78 0.8 33.5 80 -2.2 28
02:10 1009 29.8 839 24.78 1.1 33.9 75 -2.9 26.7
02:15 1009 29.8 839 24.78 1.5 34.7 74 -2.6 27.3
02:20 1009 29.8 839 24.78 1.6 34.8 74 -2.6 27.4
02:25 1010 29.83 839 24.78 1.3 34.4 78 -2.1 28.2
02:30 1010 29.83 839 24.78 1.1 34 77 -2.4 27.7
02:35 1010 29.83 839 24.78 1.2 34.1 76 -2.6 27.3
02:40 1009 29.8 839 24.78 1.3 34.3 75 -2.7 27.2
02:45 1009 29.8 839 24.78 1.5 34.6 73 -2.9 26.9
02:50 1010 29.83 839 24.78 1.5 34.7 76 -2.3 27.8
02:55 1010 29.83 839 24.78 1.2 34.2 79 -2 28.3
03:00 1010 29.83 839 24.78 1.1 34 79 -2.1 28.2
03:05 1010 29.83 839 24.78 1 33.9 81 -1.9 28.5
03:10 1010 29.83 839 24.78 1 33.8 80 -2.1 28.3
03:15 1010 29.83 839 24.78 0.9 33.6 81 -2 28.4
03:20 1010 29.83 839 24.78 1 33.7 78 -2.4 27.7
03:25 1010 29.83 839 24.78 1.1 33.9 77 -2.5 27.4
03:30 1010 29.83 839 24.78 1.1 34 78 -2.3 27.8
03:35 1010 29.83 839 24.78 1.1 33.9 78 -2.4 27.8
03:40 1010 29.83 839 24.78 1 33.9 78 -2.5 27.6
03:45 1010 29.83 839 24.78 1.1 34 78 -2.3 27.8
03:50 1010 29.83 839 24.78 1.2 34.2 79 -2 28.4
03:55 1010 29.83 839 24.78 1 33.8 78 -2.4 27.7
04:00 1010 29.83 839 24.78 1 33.8 78 -2.4 27.7
04:05 1010 29.83 839 24.78 1.1 33.9 77 -2.5 27.6
04:10 1010 29.83 839 24.78 1.1 33.9 78 -2.3 27.9
04:15 1010 29.83 839 24.78 1 33.9 78 -2.4 27.6
04:20 1010 29.83 839 24.78 1.1 34 77 -2.5 27.4
04:25 1010 29.83 839 24.78 1.2 34.1 76 -2.5 27.5
04:30 1010 29.83 839 24.78 1.3 34.3 74 -2.9 26.8
04:35 1010 29.83 839 24.78 1.4 34.5 73 -2.8 26.9
04:40 1010 29.83 839 24.78 1.7 35 69 -3.3 26
04:45 1010 29.83 840 24.81 1.8 35.2 69 -3.2 26.2
04:50 1010 29.83 840 24.81 1.9 35.3 70 -3.1 26.4
04:55 1010 29.83 840 24.81 1.9 35.4 70 -3 26.7
05:00 1010 29.83 840 24.81 1.8 35.2 71 -2.9 26.7
05:05 1010 29.83 840 24.81 1.8 35.3 71 -3 26.6
05:10 1011 29.85 840 24.81 1.9 35.4 69 -3.3 26.1
05:15 1011 29.85 840 24.81 1.9 35.4 69 -3.2 26.3
05:20 1011 29.85 840 24.81 1.8 35.3 70 -3 26.5
05:25 1011 29.85 840 24.81 1.8 35.2 70 -3.2 26.3
05:30 1011 29.85 840 24.81 1.8 35.2 69 -3.2 26.2
05:35 1011 29.85 840 24.81 1.8 35.2 70 -3.1 26.3
05:40 1011 29.85 840 24.81 1.8 35.3 70 -3.1 26.4
05:45 1011 29.85 840 24.81 1.8 35.3 70 -3.1 26.4
05:50 1011 29.85 840 24.81 1.8 35.2 71 -3 26.6
05:55 1011 29.85 840 24.81 1.7 35.1 71 -2.9 26.7
06:00 1011 29.85 840 24.81 1.7 35.1 71 -3 26.5
06:05 1011 29.85 840 24.81 1.8 35.2 70 -3 26.6
06:10 1011 29.85 840 24.81 1.8 35.3 70 -3 26.6
06:15 1011 29.85 840 24.81 1.8 35.3 70 -3 26.5
06:20 1011 29.85 840 24.81 1.8 35.3 70 -3.1 26.5
06:25 1011 29.85 840 24.81 1.9 35.4 68 -3.4 25.9
06:30 1011 29.85 840 24.81 2 35.6 66 -3.7 25.3
06:35 1011 29.85 841 24.83 2.1 35.7 68 -3.1 26.3
06:40 1011 29.85 841 24.83 1.9 35.4 70 -2.9 26.7
06:45 1012 29.88 841 24.83 1.8 35.2 71 -2.9 26.8
06:50 1012 29.88 841 24.83 1.8 35.3 69 -3.3 26.1
06:55 1012 29.88 841 24.83 1.9 35.4 69 -3.2 26.2
07:00 1012 29.88 841 24.83 2 35.7 69 -3.1 26.3
07:05 1012 29.88 841 24.83 2 35.6 70 -2.9 26.7
07:10 1012 29.88 841 24.83 2 35.6 70 -2.9 26.8
07:15 1012 29.88 841 24.83 2 35.6 70 -2.9 26.9
07:20 1012 29.88 841 24.83 2 35.6 71 -2.7 27.1
07:25 1012 29.88 841 24.83 2 35.7 71 -2.6 27.3
07:30 1012 29.88 841 24.83 2 35.7 70 -2.8 27
07:35 1012 29.88 842 24.86 2.1 35.8 70 -2.8 26.9
07:40 1012 29.88 842 24.86 2.2 35.9 69 -2.8 26.9
07:45 1013 29.91 842 24.86 2.3 36.1 67 -3.1 26.4
07:50 1013 29.91 842 24.86 2.3 36.2 67 -3.1 26.4
07:55 1013 29.91 842 24.86 2.4 36.3 67 -3.2 26.3
08:00 1013 29.91 842 24.86 2.4 36.3 66 -3.3 26
08:05 1013 29.91 842 24.86 2.3 36.2 66 -3.5 25.8
08:10 1013 29.91 842 24.86 2.2 36 67 -3.3 26
08:15 1013 29.91 842 24.86 2.2 35.9 68 -3.2 26.2
08:20 1013 29.91 842 24.86 2.2 36 67 -3.3 26.1
08:25 1013 29.91 842 24.86 2.2 36 67 -3.2 26.2
08:30 1013 29.91 842 24.86 2.2 35.9 67 -3.3 26
08:35 1013 29.91 842 24.86 2.2 36 67 -3.3 26.1
08:40 1013 29.91 842 24.86 2.4 36.3 67 -3.1 26.4
08:45 1013 29.91 842 24.86 2.4 36.3 66 -3.4 25.9
08:50 1013 29.91 843 24.89 2.1 35.8 71 -2.6 27.3
08:55 1013 29.91 843 24.89 1.7 35.1 77 -1.9 28.6
09:00 1014 29.94 843 24.89 1.5 34.7 80 -1.6 29.2
09:05 1014 29.94 843 24.89 1.3 34.4 81 -1.5 29.3
09:10 1014 29.94 843 24.89 1.2 34.2 83 -1.3 29.6
09:15 1014 29.94 843 24.89 1.2 34.2 84 -1.1 30
09:20 1014 29.94 843 24.89 1.3 34.3 84 -1.1 30
09:25 1014 29.94 843 24.89 1.4 34.5 84 -1.1 30
09:30 1014 29.94 843 24.89 1.5 34.6 83 -1.2 29.9
09:35 1014 29.94 843 24.89 1.6 34.9 83 -1 30.2
09:40 1014 29.94 843 24.89 1.8 35.2 80 -1.3 29.6
09:45 1014 29.94 843 24.89 1.8 35.3 80 -1.3 29.6
09:50 1014 29.94 843 24.89 1.8 35.2 79 -1.5 29.3
09:55 1014 29.94 843 24.89 1.7 35.1 79 -1.5 29.3
10:00 1014 29.94 843 24.89 1.7 35.1 80 -1.3 29.6
10:05 1014 29.94 843 24.89 1.5 34.7 81 -1.5 29.4
10:10 1014 29.94 843 24.89 1.6 34.8 81 -1.4 29.4
10:15 1014 29.94 843 24.89 1.8 35.2 80 -1.3 29.6
10:20 1014 29.94 843 24.89 1.7 35.1 82 -1.1 30.1
10:25 1014 29.94 843 24.89 1.7 35.1 80 -1.3 29.7
10:30 1014 29.94 843 24.89 2 35.7 78 -1.4 29.4
10:35 1014 29.94 843 24.89 2.3 36.2 76 -1.5 29.2
10:40 1014 29.94 843 24.89 2.5 36.5 75 -1.6 29.2
10:45 1014 29.94 843 24.89 2.8 37 74 -1.3 29.7
10:50 1014 29.94 843 24.89 3.5 38.3 71 -1.3 29.7
10:55 1014 29.94 843 24.89 3.5 38.2 71 -1.3 29.7
11:00 1014 29.94 843 24.89 3.2 37.8 71 -1.5 29.2
11:05 1014 29.94 843 24.89 3.7 38.7 68 -1.6 29.2
11:10 1014 29.94 843 24.89 4.3 39.7 67 -1.3 29.6
11:15 1014 29.94 843 24.89 4.4 40 61 -2.4 27.7
11:20 1014 29.94 843 24.89 4.9 40.8 60 -2.2 28
11:25 1014 29.94 843 24.89 5.6 42 56 -2.6 27.4
11:30 1014 29.94 843 24.89 4.9 40.8 61 -2 28.4
11:35 1014 29.94 843 24.89 5 41.1 62 -1.7 29
11:40 1014 29.94 843 24.89 5.3 41.5 60 -1.9 28.6
11:45 1014 29.94 843 24.89 5.9 42.6 51 -3.4 25.8
11:50 1014 29.94 843 24.89 6.3 43.4 50 -3.4 25.8
11:55 1014 29.94 843 24.89 7.1 44.7 45 -3.9 25
12:00 1014 29.94 843 24.89 7.4 45.3 47 -3.2 26.2
12:05 1014 29.94 843 24.89 7 44.6 47 -3.5 25.7
12:10 1014 29.94 843 24.89 6.5 43.6 50 -3.1 26.4
12:15 1014 29.94 843 24.89 6.3 43.3 52 -3 26.7
12:20 1014 29.94 843 24.89 6.2 43.2 51 -3.3 26.1
12:25 1014 29.94 843 24.89 6.3 43.4 49 -3.5 25.7
12:30 1014 29.94 843 24.89 6.3 43.3 51 -3.2 26.2
12:35 1014 29.94 843 24.89 6.2 43.1 54 -2.5 27.4
12:40 1014 29.94 843 24.89 5.8 42.5 55 -2.6 27.4
12:45 1014 29.94 843 24.89 5.7 42.3 53 -3.2 26.3
12:50 1013 29.91 843 24.89 6.3 43.3 50 -3.3 26
12:55 1013 29.91 843 24.89 6.7 44 48 -3.5 25.7
13:00 1013 29.91 843 24.89 6.6 43.9 55 -1.7 29
13:05 1013 29.91 843 24.89 5.8 42.5 59 -1.5 29.3
13:10 1013 29.91 843 24.89 5.4 41.6 64 -0.9 30.4
13:15 1013 29.91 843 24.89 4.8 40.7 64 -1.3 29.7
13:20 1014 29.94 843 24.89 4.8 40.6 65 -1.2 29.9
13:25 1014 29.94 843 24.89 4.7 40.5 68 -0.7 30.7
13:30 1014 29.94 843 24.89 4.8 40.7 69 -0.3 31.4
13:35 1013 29.91 843 24.89 5 41 66 -0.8 30.6
13:40 1013 29.91 843 24.89 5.1 41.2 70 0 32.1
13:45 1013 29.91 843 24.89 5 41 70 -0.1 31.9
13:50 1013 29.91 843 24.89 5.7 42.3 63 -0.7 30.7
13:55 1013 29.91 843 24.89 6.3 43.4 55 -1.9 28.5
14:00 1013 29.91 843 24.89 6.7 44 53 -2.3 27.8
14:05 1013 29.91 843 24.89 6.5 43.6 55 -2 28.4
14:10 1014 29.94 843 24.89 6.8 44.3 58 -0.8 30.5
14:15 1014 29.94 843 24.89 6.1 42.9 63 -0.5 31.1
14:20 1014 29.94 843 24.89 5.8 42.4 66 -0.1 31.8
14:25 1014 29.94 843 24.89 6.1 42.9 63 -0.5 31
14:30 1014 29.94 843 24.89 6.1 42.9 59 -1.4 29.6
14:35 1014 29.94 843 24.89 5.7 42.3 62 -1 30.1
14:40 1013 29.91 843 24.89 5.3 41.6 64 -0.8 30.5
14:45 1013 29.91 842 24.86 5.4 41.7 65 -0.7 30.7
14:50 1013 29.91 842 24.86 5.9 42.5 59 -1.5 29.4
14:55 1013 29.91 842 24.86 6.2 43.1 61 -0.7 30.8
15:00 1013 29.91 842 24.86 5.6 42 62 -1.2 29.9
15:05 1013 29.91 842 24.86 5.7 42.2 59 -1.7 28.9
15:10 1013 29.91 842 24.86 6 42.8 61 -0.8 30.5
15:15 1013 29.91 842 24.86 6.5 43.7 56 -1.6 29.2
15:20 1013 29.91 842 24.86 6.5 43.8 55 -1.8 28.8
15:25 1013 29.91 842 24.86 6.4 43.6 56 -1.7 29
15:30 1013 29.91 843 24.89 6.5 43.7 56 -1.6 29.2
15:35 1013 29.91 843 24.89 6.8 44.3 58 -0.8 30.5
15:40 1013 29.91 843 24.89 6.5 43.8 58 -1.1 30
15:45 1013 29.91 842 24.86 6.1 43.1 62 -0.6 30.8
15:50 1013 29.91 842 24.86 6.2 43.1 59 -1.2 29.9
15:55 1013 29.91 842 24.86 5.8 42.5 59 -1.4 29.4
16:00 1013 29.91 842 24.86 5.9 42.6 58 -1.6 29
16:05 1013 29.91 842 24.86 5.7 42.3 62 -0.9 30.4
16:10 1013 29.91 842 24.86 5.8 42.5 62 -1 30.3
16:15 1013 29.91 842 24.86 5.8 42.4 62 -0.9 30.4
16:20 1013 29.91 842 24.86 6 42.8 63 -0.6 31
16:25 1013 29.91 842 24.86 6.2 43.2 63 -0.3 31.5
16:30 1013 29.91 842 24.86 5.8 42.5 64 -0.5 31.1
16:35 1013 29.91 842 24.86 5.5 41.9 64 -0.7 30.8
16:40 1013 29.91 842 24.86 5.4 41.7 65 -0.6 31
16:45 1013 29.91 842 24.86 5.1 41.1 69 -0.1 31.8
16:50 1013 29.91 842 24.86 4.9 40.9 66 -0.8 30.6
16:55 1013 29.91 842 24.86 5.1 41.1 70 -0 32
17:00 1013 29.91 842 24.86 5.8 42.4 65 -0.2 31.6
17:05 1013 29.91 842 24.86 5.9 42.7 64 -0.2 31.6
17:10 1013 29.91 842 24.86 6.8 44.2 55 -1.6 29
17:15 1013 29.91 842 24.86 7.3 45.1 55 -1.1 29.9
17:20 1012 29.88 842 24.86 8.2 46.8 48 -2.1 28.3
17:25 1012 29.88 842 24.86 8.6 47.4 44 -3 26.5
17:30 1012 29.88 842 24.86 8.7 47.6 47 -1.9 28.6
17:35 1012 29.88 842 24.86 8.7 47.6 56 0.4 32.8
17:40 1013 29.91 842 24.86 7.8 46.1 47 -2.8 26.9
17:45 1013 29.91 842 24.86 8.1 46.5 53 -0.9 30.3
17:50 1013 29.91 842 24.86 7.6 45.6 60 0.3 32.5
17:55 1013 29.91 842 24.86 7.4 45.4 60 0.1 32.3
18:00 1012 29.88 842 24.86 7.7 45.8 49 -2.4 27.7
18:05 1012 29.88 842 24.86 9.4 48.9 33 -6 21.2
18:10 1012 29.88 842 24.86 9.7 49.5 34 -5.5 22.1
18:15 1012 29.88 842 24.86 9.4 49 35 -5.2 22.6
18:20 1012 29.88 842 24.86 9.9 49.8 31 -6.2 20.8
18:25 1012 29.88 842 24.86 10.1 50.2 30 -6.6 20
18:30 1013 29.91 842 24.86 9.9 49.9 33 -5.7 21.7
18:35 1013 29.91 842 24.86 9.7 49.5 29 -7.3 18.9
18:40 1013 29.91 842 24.86 9.8 49.6 30 -7 19.3
18:45 1013 29.91 842 24.86 9.6 49.3 31 -6.9 19.6
18:50 1013 29.91 842 24.86 9.4 48.8 31 -6.9 19.5
18:55 1013 29.91 842 24.86 9.2 48.5 31 -6.9 19.5
19:00 1013 29.91 842 24.86 9.2 48.5 30 -7.4 18.7
19:05 1013 29.91 842 24.86 9.1 48.4 30 -7.6 18.3
19:10 1013 29.91 842 24.86 8.9 48 30 -7.8 18
19:15 1013 29.91 842 24.86 8.8 47.8 30 -7.9 17.7
19:20 1013 29.91 842 24.86 8.7 47.7 30 -8 17.5
19:25 1013 29.91 842 24.86 8.6 47.5 30 -7.9 17.8
19:30 1013 29.91 842 24.86 8.4 47.2 31 -7.7 18.1
19:35 1013 29.91 842 24.86 8.3 46.9 31 -7.9 17.9
19:40 1013 29.91 842 24.86 8.2 46.7 32 -7.6 18.3
19:45 1013 29.91 842 24.86 8 46.5 32 -7.8 17.9
19:50 1013 29.91 842 24.86 8 46.3 31 -8.1 17.4
19:55 1013 29.91 842 24.86 7.9 46.2 32 -7.8 18
20:00 1013 29.91 842 24.86 7.9 46.2 32 -7.9 17.8
20:05 1013 29.91 842 24.86 7.7 45.9 32 -7.9 17.8
20:10 1013 29.91 842 24.86 7.6 45.6 32 -8.2 17.2
20:15 1013 29.91 842 24.86 7.4 45.4 32 -8.2 17.2
20:20 1013 29.91 842 24.86 7.2 45 33 -8 17.6
20:25 1013 29.91 842 24.86 7 44.6 34 -7.7 18.2
20:30 1013 29.91 843 24.89 6.8 44.2 34 -8 17.6
20:35 1013 29.91 843 24.89 6.6 43.9 34 -8.2 17.2
20:40 1013 29.91 843 24.89 6.5 43.6 34 -8.4 16.9
20:45 1014 29.94 843 24.89 6.3 43.4 34 -8.4 17
20:50 1014 29.94 843 24.89 6.2 43.2 34 -8.4 16.9
20:55 1014 29.94 843 24.89 6.1 43 35 -8.3 17
21:00 1014 29.94 843 24.89 6.1 43 34 -8.5 16.7
21:05 1014 29.94 843 24.89 6 42.7 35 -8.3 17.1
21:10 1014 29.94 843 24.89 5.8 42.5 36 -8.2 17.2
21:15 1014 29.94 843 24.89 5.7 42.3 36 -8.1 17.4
21:20 1014 29.94 843 24.89 5.6 42 38 -7.5 18.5
21:25 1014 29.94 843 24.89 5.4 41.7 39 -7.4 18.6
21:30 1014 29.94 843 24.89 5.2 41.4 40 -7.3 18.8
21:35 1014 29.94 844 24.92 5.1 41.2 41 -7.2 19
21:40 1014 29.94 844 24.92 5 41.1 41 -7.2 19.1
21:45 1015 29.97 844 24.92 5 41 41 -7.1 19.2
21:50 1015 29.97 844 24.92 5 40.9 42 -7.1 19.3
21:55 1015 29.97 844 24.92 4.8 40.7 42 -7 19.4
22:00 1015 29.97 844 24.92 4.6 40.4 46 -6.1 21
22:05 1015 29.97 844 24.92 3.8 38.9 50 -5.7 21.8
22:10 1015 29.97 844 24.92 3.1 37.6 54 -5.4 22.3
22:15 1015 29.97 844 24.92 2.5 36.5 57 -5.2 22.6
22:20 1015 29.97 844 24.92 2.6 36.6 53 -6.2 20.9
22:25 1015 29.97 844 24.92 3.1 37.7 48 -6.9 19.5
22:30 1015 29.97 844 24.92 3.7 38.6 45 -7.3 18.9
22:35 1015 29.97 844 24.92 4 39.2 43 -7.4 18.8
22:40 1015 29.97 844 24.92 4.2 39.6 43 -7.2 19.1
22:45 1015 29.97 844 24.92 4.2 39.5 44 -6.9 19.6
22:50 1015 29.97 844 24.92 4 39.3 45 -6.7 19.9
22:55 1014 29.94 844 24.92 3.8 38.9 47 -6.6 20.2
23:00 1014 29.94 844 24.92 3.7 38.7 47 -6.6 20.2
23:05 1015 29.97 844 24.92 3.6 38.5 48 -6.4 20.4
23:10 1015 29.97 844 24.92 3.6 38.5 48 -6.5 20.4
23:15 1015 29.97 844 24.92 3.6 38.5 48 -6.4 20.5
23:20 1015 29.97 844 24.92 3.6 38.5 49 -6.2 20.8
23:25 1015 29.97 844 24.92 3.6 38.5 48 -6.3 20.7
23:30 1015 29.97 844 24.92 3.4 38.1 50 -6 21.2
23:35 1015 29.97 844 24.92 3.1 37.5 52 -5.9 21.4
23:40 1015 29.97 844 24.92 2.7 36.9 54 -5.7 21.8
23:45 1015 29.97 844 24.92 2.6 36.7 54 -5.9 21.4
23:50 1015 29.97 844 24.92 2.7 36.8 52 -6.2 20.9
23:55 1015 29.97 844 24.92 2.7 36.8 53 -6 21.3
24:00 1015 29.97 844 24.92 2.5 36.5 54 -5.9 21.4